Time;durP1;ratioP1;P1;durP2;ratioP2;P2;SDS_P1;SDS_P2;PMS_P1;PMS_P2;Temp;Humidity;BMP_temperature;BMP_pressure;BME280_temperature;BME280_humidity;BME280_pressure;Samples;Min_cycle;Max_cycle;Signal;HPM_P1;HPM_P2
2024/03/02 00:02:07;;;;;;;3.25;0.63;;;9.30;99.90;;;;;;5008089;28;20395;-77
2024/03/02 00:04:32;;;;;;;3.17;1.20;;;9.40;99.90;;;;;;5012858;28;20029;-77
2024/03/02 00:06:58;;;;;;;4.05;0.90;;;9.40;99.90;;;;;;5010406;28;20037;-77
2024/03/02 00:09:24;;;;;;;5.93;1.05;;;9.50;99.90;;;;;;5009760;28;20033;-77
2024/03/02 00:11:50;;;;;;;8.20;1.20;;;9.60;99.90;;;;;;5009680;28;20130;-77
2024/03/02 00:14:16;;;;;;;2.78;0.85;;;9.60;99.90;;;;;;5011407;28;20045;-77
2024/03/02 00:16:43;;;;;;;5.10;0.95;;;9.60;99.90;;;;;;5010059;28;20049;-77
2024/03/02 00:19:09;;;;;;;5.55;1.80;;;9.50;99.90;;;;;;5012094;28;20037;-77
2024/03/02 00:21:35;;;;;;;5.15;1.50;;;9.50;99.90;;;;;;5010014;28;20037;-78
2024/03/02 00:24:29;;;;;;;2.92;1.55;;;9.40;99.90;;;;;;5010425;28;20021;-77
2024/03/02 00:26:54;;;;;;;5.72;1.38;;;9.40;99.90;;;;;;5009708;28;20045;-77
2024/03/02 00:29:21;;;;;;;9.18;1.65;;;9.40;99.90;;;;;;5010758;28;20025;-77
2024/03/02 00:31:48;;;;;;;3.90;1.27;;;9.50;99.90;;;;;;5009981;28;20428;-77
2024/03/02 00:34:16;;;;;;;3.63;1.00;;;9.50;99.90;;;;;;5010913;28;20049;-77
2024/03/02 00:36:42;;;;;;;4.72;1.23;;;9.40;99.90;;;;;;5011448;28;20530;-77
2024/03/02 00:39:07;;;;;;;4.82;2.17;;;9.40;99.90;;;;;;5011345;28;20033;-77
2024/03/02 00:41:33;;;;;;;4.40;1.17;;;9.40;99.90;;;;;;5008705;28;20038;-77
2024/03/02 00:44:03;;;;;;;7.70;1.65;;;9.50;99.90;;;;;;5011981;28;20065;-77
2024/03/02 00:46:33;;;;;;;3.47;0.95;;;9.40;99.90;;;;;;5010554;28;21879;-77
2024/03/02 00:49:01;;;;;;;6.57;1.85;;;9.40;99.90;;;;;;5010847;28;20112;-77
2024/03/02 00:51:29;;;;;;;7.55;1.10;;;9.40;99.90;;;;;;5009482;28;20480;-77
2024/03/02 00:54:07;;;;;;;4.50;1.08;;;9.40;99.90;;;;;;5010981;28;20116;-77
2024/03/02 00:56:34;;;;;;;5.30;1.38;;;9.40;99.90;;;;;;5012037;28;20056;-77
2024/03/02 00:59:00;;;;;;;5.63;1.30;;;9.40;99.90;;;;;;5014300;28;20065;-77
2024/03/02 01:01:26;;;;;;;2.28;0.80;;;9.40;99.90;;;;;;5013337;28;20204;-77
2024/03/02 01:03:52;;;;;;;5.88;1.15;;;9.30;99.90;;;;;;5014201;28;20029;-77
2024/03/02 01:06:18;;;;;;;4.05;1.30;;;9.30;99.90;;;;;;5012815;28;20373;-77
2024/03/02 01:08:46;;;;;;;5.20;1.00;;;9.30;99.90;;;;;;5012828;28;20041;-77
2024/03/02 01:11:11;;;;;;;6.15;1.70;;;9.20;99.90;;;;;;5012653;28;20462;-78
2024/03/02 01:13:37;;;;;;;6.63;1.20;;;9.20;99.90;;;;;;5008204;28;20041;-77
2024/03/02 01:16:03;;;;;;;4.25;1.20;;;9.10;99.90;;;;;;5008445;28;20161;-77
2024/03/02 01:18:30;;;;;;;5.03;1.08;;;9.00;99.90;;;;;;5014445;28;20056;-77
2024/03/02 01:20:56;;;;;;;5.00;2.45;;;9.00;99.90;;;;;;5013778;28;20048;-77
2024/03/02 01:23:25;;;;;;;5.43;1.55;;;9.00;99.90;;;;;;5014865;28;20037;-77
2024/03/02 01:25:51;;;;;;;6.03;1.00;;;9.10;99.90;;;;;;5015958;28;20152;-77
2024/03/02 01:28:18;;;;;;;10.90;1.70;;;9.10;99.90;;;;;;5012972;28;20042;-77
2024/03/02 01:30:44;;;;;;;5.25;1.50;;;9.20;99.90;;;;;;5014226;28;20053;-78
2024/03/02 01:33:10;;;;;;;7.75;1.58;;;9.30;99.90;;;;;;5014523;28;20109;-77
2024/03/02 01:35:37;;;;;;;8.57;1.30;;;9.40;99.90;;;;;;5014130;28;20029;-77
2024/03/02 01:38:03;;;;;;;6.95;1.48;;;9.40;99.90;;;;;;5012660;28;20033;-77
2024/03/02 01:40:29;;;;;;;10.05;1.83;;;9.40;99.90;;;;;;5011965;28;20092;-77
2024/03/02 01:42:55;;;;;;;6.22;2.10;;;9.30;99.90;;;;;;5012944;28;20507;-78
2024/03/02 01:45:21;;;;;;;6.25;1.10;;;9.30;99.90;;;;;;5014030;28;20511;-77
2024/03/02 01:47:47;;;;;;;5.40;1.20;;;9.20;99.90;;;;;;5014109;28;20037;-77
2024/03/02 01:50:13;;;;;;;8.43;2.20;;;9.20;99.90;;;;;;5012219;28;20483;-77
2024/03/02 01:52:40;;;;;;;7.10;1.23;;;9.20;99.90;;;;;;5013111;28;20053;-77
2024/03/02 01:55:07;;;;;;;8.52;1.65;;;9.20;99.90;;;;;;5014077;28;20060;-77
2024/03/02 01:57:34;;;;;;;6.55;1.42;;;9.30;99.90;;;;;;5013006;28;20041;-77
2024/03/02 02:00:00;;;;;;;4.85;1.48;;;9.30;99.90;;;;;;5013741;28;20041;-77
2024/03/02 02:02:26;;;;;;;7.63;1.50;;;9.30;99.90;;;;;;5015174;28;20443;-77
2024/03/02 02:04:52;;;;;;;5.55;1.20;;;9.30;99.90;;;;;;5014511;28;20029;-78
2024/03/02 02:07:17;;;;;;;3.65;1.50;;;9.40;99.90;;;;;;5011709;28;20117;-77
2024/03/02 02:09:43;;;;;;;6.63;1.50;;;9.40;99.90;;;;;;5014558;28;20041;-77
2024/03/02 02:12:11;;;;;;;6.45;1.70;;;9.40;99.90;;;;;;5012055;28;20407;-77
2024/03/02 02:14:39;;;;;;;10.77;1.20;;;9.30;99.90;;;;;;5012641;28;20375;-77
2024/03/02 02:17:05;;;;;;;4.25;1.75;;;9.30;99.90;;;;;;5011113;28;20045;-77
2024/03/02 02:19:31;;;;;;;5.25;1.20;;;9.20;99.90;;;;;;5013586;28;20369;-77
2024/03/02 02:21:56;;;;;;;6.95;1.70;;;9.20;99.90;;;;;;5013400;28;20029;-77
2024/03/02 02:24:22;;;;;;;6.00;1.98;;;9.20;99.90;;;;;;5014144;28;20373;-77
2024/03/02 02:26:47;;;;;;;6.30;1.75;;;9.20;99.90;;;;;;5010854;28;20029;-77
2024/03/02 02:29:13;;;;;;;10.57;1.67;;;9.20;99.90;;;;;;5013823;28;20029;-77
2024/03/02 02:31:42;;;;;;;6.75;1.70;;;9.20;99.90;;;;;;5014703;28;20033;-77
2024/03/02 02:34:09;;;;;;;9.30;1.63;;;9.20;99.90;;;;;;5012073;28;20037;-77
2024/03/02 02:36:39;;;;;;;9.82;1.42;;;9.10;99.90;;;;;;5013298;28;20499;-77
2024/03/02 02:39:07;;;;;;;3.72;1.17;;;9.10;99.90;;;;;;5014840;28;20701;-77
2024/03/02 02:41:33;;;;;;;12.13;1.50;;;9.10;99.90;;;;;;5012466;28;20029;-77
2024/03/02 02:43:58;;;;;;;7.75;1.42;;;9.20;99.90;;;;;;5012284;28;20040;-77
2024/03/02 02:46:24;;;;;;;6.03;1.33;;;9.10;99.90;;;;;;5014339;28;20029;-77
2024/03/02 02:48:51;;;;;;;7.55;2.58;;;9.20;99.90;;;;;;5013338;28;20042;-77
2024/03/02 02:51:17;;;;;;;5.78;1.70;;;9.20;99.90;;;;;;5013081;28;20033;-77
2024/03/02 02:53:43;;;;;;;8.25;2.17;;;9.10;99.90;;;;;;5015792;28;20061;-78
2024/03/02 02:56:09;;;;;;;4.90;1.95;;;9.10;99.90;;;;;;5016665;28;20503;-77
2024/03/02 02:58:35;;;;;;;8.68;1.67;;;9.10;99.90;;;;;;5017502;28;20042;-77
2024/03/02 03:01:01;;;;;;;3.25;1.45;;;9.10;99.90;;;;;;5017564;28;20073;-77
2024/03/02 03:03:26;;;;;;;5.85;2.08;;;9.20;99.90;;;;;;5017520;28;20199;-77
2024/03/02 03:05:52;;;;;;;8.18;2.00;;;9.10;99.90;;;;;;5017185;28;20037;-77
2024/03/02 03:08:18;;;;;;;3.13;1.45;;;9.10;99.90;;;;;;5014207;28;20041;-77
2024/03/02 03:10:44;;;;;;;8.52;1.80;;;9.20;99.90;;;;;;5015637;28;20183;-77
2024/03/02 03:13:10;;;;;;;7.30;1.70;;;9.10;99.90;;;;;;5018058;28;20116;-77
2024/03/02 03:15:38;;;;;;;5.43;1.60;;;9.10;99.90;;;;;;5015755;28;20029;-78
2024/03/02 03:18:04;;;;;;;7.15;1.70;;;9.00;99.90;;;;;;5014648;28;20108;-78
2024/03/02 03:20:31;;;;;;;7.05;2.65;;;9.10;99.90;;;;;;5017926;28;20040;-77
2024/03/02 03:22:59;;;;;;;7.35;2.47;;;9.10;99.90;;;;;;5016359;28;20057;-78
2024/03/02 03:25:26;;;;;;;5.63;1.63;;;9.10;99.90;;;;;;5015319;28;20368;-77
2024/03/02 03:27:54;;;;;;;3.55;1.40;;;9.10;99.90;;;;;;5016501;28;20044;-77
2024/03/02 03:30:20;;;;;;;7.63;2.08;;;9.10;99.90;;;;;;5015618;28;21368;-77
2024/03/02 03:32:47;;;;;;;5.22;1.63;;;9.10;99.90;;;;;;5010718;28;20029;-77
2024/03/02 03:35:14;;;;;;;5.75;1.33;;;9.10;99.90;;;;;;5007072;28;20541;-77
2024/03/02 03:37:40;;;;;;;8.48;1.40;;;9.10;99.90;;;;;;5009142;28;20468;-77
2024/03/02 03:40:09;;;;;;;10.95;2.00;;;9.20;99.90;;;;;;5008523;28;20026;-77
2024/03/02 03:42:36;;;;;;;4.88;1.42;;;9.20;99.90;;;;;;5012409;28;20120;-77
2024/03/02 03:45:02;;;;;;;7.22;1.50;;;9.00;99.90;;;;;;5013680;28;20083;-77
2024/03/02 03:47:28;;;;;;;4.80;1.48;;;9.10;99.90;;;;;;5015461;28;20040;-77
2024/03/02 03:49:54;;;;;;;5.20;1.50;;;9.00;99.90;;;;;;5016733;28;20033;-77
2024/03/02 03:52:20;;;;;;;4.63;1.60;;;9.00;99.90;;;;;;5016251;28;20095;-77
2024/03/02 03:54:46;;;;;;;5.53;1.13;;;9.10;99.90;;;;;;5014327;28;20447;-77
2024/03/02 03:57:12;;;;;;;5.50;2.53;;;9.10;99.90;;;;;;5015719;28;20123;-77
2024/03/02 03:59:38;;;;;;;6.55;1.83;;;9.00;99.90;;;;;;5016354;28;20528;-77
2024/03/02 04:02:04;;;;;;;9.13;1.65;;;9.00;99.90;;;;;;5016875;28;20464;-77
2024/03/02 04:04:30;;;;;;;5.75;1.80;;;9.10;99.90;;;;;;5010850;28;20041;-77
2024/03/02 04:06:55;;;;;;;4.28;1.20;;;9.10;99.90;;;;;;5007388;28;20030;-77
2024/03/02 04:09:21;;;;;;;6.45;1.30;;;9.10;99.90;;;;;;5009575;28;20044;-77
2024/03/02 04:11:47;;;;;;;4.10;1.50;;;9.10;99.90;;;;;;5012301;28;20427;-77
2024/03/02 04:14:12;;;;;;;10.32;2.38;;;9.10;99.90;;;;;;5009455;28;20030;-77
2024/03/02 04:16:39;;;;;;;6.50;1.48;;;9.10;99.90;;;;;;5010521;28;20432;-77
2024/03/02 04:19:04;;;;;;;7.85;2.10;;;9.00;99.90;;;;;;5008330;28;20041;-77
2024/03/02 04:21:30;;;;;;;7.22;1.48;;;9.10;99.90;;;;;;5008231;28;20030;-77
2024/03/02 04:23:58;;;;;;;6.10;1.52;;;9.00;99.90;;;;;;5008429;28;20037;-77
2024/03/02 04:26:25;;;;;;;5.78;1.20;;;9.10;99.90;;;;;;5010085;28;20029;-77
2024/03/02 04:28:54;;;;;;;3.45;1.23;;;9.10;99.90;;;;;;5007857;28;20087;-77
2024/03/02 04:31:20;;;;;;;7.63;1.55;;;9.00;99.90;;;;;;5008024;28;20447;-77
2024/03/02 04:33:46;;;;;;;4.90;1.52;;;8.80;99.90;;;;;;5011257;28;20044;-77
2024/03/02 04:36:11;;;;;;;8.20;1.70;;;8.90;99.90;;;;;;5009540;28;20411;-76
2024/03/02 04:38:38;;;;;;;4.25;1.48;;;8.90;99.90;;;;;;5006970;28;20111;-77
2024/03/02 04:41:08;;;;;;;5.18;1.58;;;8.90;99.90;;;;;;5009338;28;20061;-77
2024/03/02 04:43:34;;;;;;;13.90;1.60;;;8.80;99.90;;;;;;5008054;28;20026;-76
2024/03/02 04:46:00;;;;;;;4.95;1.75;;;8.80;99.90;;;;;;5007702;28;20048;-77
2024/03/02 04:48:26;;;;;;;5.60;1.55;;;8.70;99.90;;;;;;5007177;28;20038;-77
2024/03/02 04:50:52;;;;;;;4.10;1.40;;;8.70;99.90;;;;;;5008795;28;20854;-77
2024/03/02 04:53:18;;;;;;;5.22;1.50;;;8.60;99.90;;;;;;5008400;28;20038;-77
2024/03/02 04:58:09;;;;;;;6.28;1.40;;;8.70;99.90;;;;;;5007173;28;20041;-76
2024/03/02 05:00:35;;;;;;;9.18;2.00;;;8.70;99.90;;;;;;5009205;28;20151;-76
2024/03/02 05:03:03;;;;;;;9.73;3.10;;;8.70;99.90;;;;;;5007550;28;20048;-77
2024/03/02 05:05:28;;;;;;;5.78;1.33;;;8.80;99.90;;;;;;5008358;28;20033;-76
2024/03/02 05:07:54;;;;;;;6.60;1.70;;;8.80;99.90;;;;;;5009220;28;20034;-77
2024/03/02 05:10:20;;;;;;;5.65;1.95;;;8.80;99.90;;;;;;5003809;28;20064;-77
2024/03/02 05:15:12;;;;;;;6.35;2.00;;;8.90;99.90;;;;;;5008524;28;20037;-76
2024/03/02 05:17:39;;;;;;;6.50;1.73;;;8.90;99.90;;;;;;5009727;28;20056;-76
2024/03/02 05:20:08;;;;;;;4.22;1.58;;;8.90;99.90;;;;;;5010023;28;20034;-76
2024/03/02 05:22:34;;;;;;;5.45;2.03;;;8.90;99.90;;;;;;5009759;28;20068;-76
2024/03/02 05:25:00;;;;;;;7.68;2.03;;;9.00;99.90;;;;;;5010700;28;20029;-77
2024/03/02 05:27:27;;;;;;;7.43;1.52;;;8.90;99.90;;;;;;5010417;28;20040;-76
2024/03/02 05:29:52;;;;;;;5.07;1.35;;;9.00;99.90;;;;;;5004948;28;20087;-76
2024/03/02 05:32:18;;;;;;;10.85;1.77;;;9.00;99.90;;;;;;5005927;28;20037;-76
2024/03/02 05:34:44;;;;;;;4.20;1.10;;;8.90;99.90;;;;;;5008985;28;20045;-77
2024/03/02 05:37:09;;;;;;;7.40;1.65;;;8.90;99.90;;;;;;5007830;28;20073;-76
2024/03/02 05:39:35;;;;;;;4.35;1.92;;;8.80;99.90;;;;;;5006520;28;21141;-76
2024/03/02 05:42:01;;;;;;;5.65;1.58;;;8.80;99.90;;;;;;5006364;28;20387;-76
2024/03/02 05:44:27;;;;;;;4.13;1.25;;;8.80;99.90;;;;;;5007281;28;20029;-76
2024/03/02 05:46:52;;;;;;;6.20;2.10;;;8.90;99.90;;;;;;5004957;28;20621;-77
2024/03/02 05:49:18;;;;;;;8.98;1.67;;;9.00;99.90;;;;;;5007528;28;20047;-76
2024/03/02 05:51:44;;;;;;;8.35;1.80;;;9.10;99.90;;;;;;5006655;28;20028;-76
2024/03/02 05:54:09;;;;;;;5.03;1.88;;;9.00;99.90;;;;;;5007747;28;21419;-76
2024/03/02 05:56:35;;;;;;;11.35;2.70;;;9.00;99.90;;;;;;5008620;28;20041;-77
2024/03/02 05:59:13;;;;;;;5.05;2.08;;;9.00;99.90;;;;;;5009526;28;20040;-77
2024/03/02 06:01:50;;;;;;;6.43;1.90;;;9.00;99.90;;;;;;5008343;28;20108;-76
2024/03/02 06:04:16;;;;;;;6.32;2.30;;;8.90;99.90;;;;;;5007155;28;20064;-76
2024/03/02 06:06:42;;;;;;;5.15;1.70;;;8.90;99.90;;;;;;5008756;28;20487;-76
2024/03/02 06:09:07;;;;;;;6.97;1.98;;;8.90;99.90;;;;;;5004965;28;20086;-77
2024/03/02 06:11:37;;;;;;;4.03;1.83;;;8.90;99.90;;;;;;5008448;28;20065;-76
2024/03/02 06:14:04;;;;;;;6.00;1.95;;;8.80;99.90;;;;;;5004392;28;20103;-77
2024/03/02 06:16:29;;;;;;;9.80;2.15;;;8.90;99.90;;;;;;5006873;28;20056;-76
2024/03/02 06:18:57;;;;;;;5.75;2.03;;;8.80;99.90;;;;;;5007223;28;20048;-76
2024/03/02 06:21:23;;;;;;;4.82;2.08;;;8.80;99.90;;;;;;5008092;28;20683;-76
2024/03/02 06:23:49;;;;;;;12.25;2.92;;;8.80;99.90;;;;;;5006314;28;20037;-77
2024/03/02 06:26:15;;;;;;;4.60;1.88;;;8.90;99.90;;;;;;5006543;28;20045;-77
2024/03/02 06:28:40;;;;;;;9.82;2.35;;;9.00;99.90;;;;;;5005548;28;20698;-77
2024/03/02 06:31:06;;;;;;;5.90;2.05;;;9.00;99.90;;;;;;5006367;28;20033;-76
2024/03/02 06:33:32;;;;;;;5.95;2.22;;;9.00;99.90;;;;;;5007804;28;20048;-77
2024/03/02 06:35:58;;;;;;;6.00;1.90;;;9.10;99.90;;;;;;5006216;28;20032;-77
2024/03/02 06:38:23;;;;;;;7.25;2.55;;;9.00;99.90;;;;;;5006835;28;20057;-76
2024/03/02 06:40:49;;;;;;;11.18;3.63;;;9.00;99.90;;;;;;5007059;28;20112;-77
2024/03/02 06:43:15;;;;;;;11.23;3.00;;;9.00;99.90;;;;;;5006986;28;20080;-77
2024/03/02 06:45:40;;;;;;;8.15;2.42;;;9.00;99.90;;;;;;5003611;28;20110;-77
2024/03/02 06:48:06;;;;;;;6.25;2.22;;;9.00;99.90;;;;;;5007834;28;20438;-76
2024/03/02 06:50:32;;;;;;;8.30;2.83;;;9.00;99.90;;;;;;5006205;28;20037;-76
2024/03/02 06:52:58;;;;;;;8.80;2.15;;;9.00;99.90;;;;;;5005445;28;20034;-76
2024/03/02 06:55:24;;;;;;;6.70;2.78;;;9.10;99.90;;;;;;5006269;28;20484;-76
2024/03/02 06:57:50;;;;;;;6.53;2.25;;;9.10;99.90;;;;;;5005851;28;20092;-77
2024/03/02 07:00:17;;;;;;;6.22;2.60;;;9.10;99.90;;;;;;5006609;28;20112;-77
2024/03/02 07:02:44;;;;;;;6.80;2.25;;;9.00;99.90;;;;;;5007804;28;20030;-77
2024/03/02 07:05:11;;;;;;;7.85;1.98;;;9.10;99.90;;;;;;5006526;28;20087;-77
2024/03/02 07:07:37;;;;;;;11.45;2.42;;;9.10;99.90;;;;;;5007025;28;20052;-77
2024/03/02 07:10:07;;;;;;;4.28;2.15;;;9.20;99.90;;;;;;5006172;28;20049;-76
2024/03/02 07:12:33;;;;;;;9.65;2.25;;;9.20;99.90;;;;;;5006172;28;20022;-77
2024/03/02 07:17:33;;;;;;;12.63;3.55;;;9.30;99.90;;;;;;5006235;28;20476;-78
2024/03/02 07:19:59;;;;;;;5.75;1.88;;;9.40;99.90;;;;;;5006154;28;20037;-75
2024/03/02 07:22:25;;;;;;;5.53;2.08;;;9.40;99.90;;;;;;5005754;28;20412;-75
2024/03/02 07:24:50;;;;;;;4.93;2.30;;;9.50;99.90;;;;;;5004805;28;20046;-77
2024/03/02 07:27:17;;;;;;;3.75;1.90;;;9.40;99.90;;;;;;5005617;28;20042;-75
2024/03/02 07:29:43;;;;;;;4.28;1.85;;;9.40;99.90;;;;;;5007853;28;20061;-75
2024/03/02 07:32:10;;;;;;;6.05;2.20;;;9.40;99.90;;;;;;5005614;28;20467;-78
2024/03/02 07:34:36;;;;;;;6.97;2.13;;;9.40;99.90;;;;;;5004337;28;20029;-78
2024/03/02 07:37:02;;;;;;;4.57;2.05;;;9.50;99.90;;;;;;5006516;28;20738;-75
2024/03/02 07:39:29;;;;;;;7.53;2.67;;;9.50;99.90;;;;;;5008677;28;20104;-78
2024/03/02 07:41:55;;;;;;;9.68;2.83;;;9.40;99.90;;;;;;5008225;28;20045;-78
2024/03/02 07:44:21;;;;;;;6.32;2.83;;;9.50;99.90;;;;;;5009809;28;20042;-78
2024/03/02 07:46:49;;;;;;;9.98;3.05;;;9.60;99.90;;;;;;5011623;28;20036;-78
2024/03/02 07:49:15;;;;;;;6.68;2.97;;;9.60;99.90;;;;;;5010315;28;20044;-78
2024/03/02 07:51:41;;;;;;;6.65;2.75;;;9.70;99.90;;;;;;5009775;28;20061;-78
2024/03/02 07:54:07;;;;;;;12.68;2.75;;;9.80;99.90;;;;;;5010779;28;20047;-75
2024/03/02 07:56:33;;;;;;;6.50;2.25;;;9.80;99.90;;;;;;5009331;28;20480;-77
2024/03/02 07:59:01;;;;;;;6.05;2.50;;;10.00;99.90;;;;;;5009011;28;20199;-77
2024/03/02 08:01:33;;;;;;;6.00;2.88;;;10.10;99.90;;;;;;5011080;28;20036;-78
2024/03/02 08:04:00;;;;;;;5.70;2.70;;;10.10;99.90;;;;;;5009514;28;20033;-77
2024/03/02 08:06:29;;;;;;;8.13;3.13;;;10.10;99.90;;;;;;5007715;28;20573;-77
2024/03/02 08:08:56;;;;;;;6.57;3.10;;;10.20;99.90;;;;;;5011442;28;20037;-77
2024/03/02 08:11:22;;;;;;;7.15;3.13;;;10.20;99.90;;;;;;5010099;28;20050;-77
2024/03/02 08:13:48;;;;;;;4.80;2.38;;;10.20;99.90;;;;;;5009793;28;20045;-77
2024/03/02 08:16:20;;;;;;;7.60;2.65;;;10.30;99.90;;;;;;5009748;28;20045;-77
2024/03/02 08:18:50;;;;;;;12.95;3.33;;;10.30;99.90;;;;;;5016977;28;20052;-78
2024/03/02 08:21:16;;;;;;;8.77;3.50;;;10.30;99.90;;;;;;5009462;28;20041;-78
2024/03/02 08:23:43;;;;;;;6.30;3.40;;;10.30;99.90;;;;;;5009553;28;20120;-77
2024/03/02 08:26:09;;;;;;;11.40;3.63;;;10.20;99.90;;;;;;5010788;28;20037;-78
2024/03/02 08:28:36;;;;;;;12.00;3.85;;;10.20;99.90;;;;;;5021554;28;20064;-78
2024/03/02 08:31:05;;;;;;;11.35;3.53;;;10.20;99.90;;;;;;5014435;28;20033;-76
2024/03/02 08:33:31;;;;;;;12.52;3.95;;;10.30;99.90;;;;;;5012139;28;20037;-76
2024/03/02 08:35:56;;;;;;;7.03;3.00;;;10.40;99.90;;;;;;5012941;28;20033;-78
2024/03/02 08:38:22;;;;;;;5.93;3.10;;;10.50;99.90;;;;;;5014688;28;20065;-78
2024/03/02 08:40:49;;;;;;;6.47;3.10;;;10.60;99.90;;;;;;5013528;28;20036;-78
2024/03/02 08:43:15;;;;;;;8.50;3.47;;;10.60;99.90;;;;;;5012985;28;20045;-77
2024/03/02 08:45:41;;;;;;;12.82;3.95;;;10.60;99.90;;;;;;5012425;28;20028;-77
2024/03/02 08:48:09;;;;;;;8.05;3.28;;;10.40;99.90;;;;;;5012276;28;21315;-77
2024/03/02 08:50:36;;;;;;;9.05;3.28;;;10.60;99.90;;;;;;5012765;28;21448;-77
2024/03/02 08:53:03;;;;;;;6.32;3.85;;;10.70;99.90;;;;;;5013298;28;20672;-77
2024/03/02 08:55:29;;;;;;;6.90;3.15;;;10.80;99.90;;;;;;5012740;28;20065;-77
2024/03/02 08:57:55;;;;;;;6.53;3.90;;;10.90;99.90;;;;;;5012626;28;20266;-77
2024/03/02 09:00:21;;;;;;;4.82;2.72;;;10.90;99.90;;;;;;5010495;28;20083;-77
2024/03/02 09:02:47;;;;;;;7.53;3.65;;;10.90;99.90;;;;;;5009807;28;20043;-77
2024/03/02 09:05:13;;;;;;;7.78;3.00;;;10.80;99.90;;;;;;5011339;28;20033;-77
2024/03/02 09:07:39;;;;;;;7.60;3.08;;;10.80;99.90;;;;;;5012560;28;20082;-77
2024/03/02 09:10:08;;;;;;;12.02;3.97;;;10.80;99.90;;;;;;5011563;28;20895;-75
2024/03/02 09:12:34;;;;;;;7.78;3.20;;;10.90;99.90;;;;;;5011659;28;20135;-75
2024/03/02 09:15:01;;;;;;;8.75;3.00;;;11.00;99.90;;;;;;5010349;28;20046;-76
2024/03/02 09:17:26;;;;;;;8.50;3.28;;;11.10;99.90;;;;;;5006642;28;20107;-79
2024/03/02 09:19:52;;;;;;;7.13;3.35;;;11.20;99.90;;;;;;5011251;28;20574;-79
2024/03/02 09:22:19;;;;;;;12.15;3.08;;;11.30;99.90;;;;;;5010261;28;20909;-76
2024/03/02 09:24:44;;;;;;;7.30;3.17;;;11.20;99.90;;;;;;5012118;28;20037;-79
2024/03/02 09:27:10;;;;;;;6.43;2.92;;;11.20;99.90;;;;;;5009196;28;20048;-78
2024/03/02 09:29:36;;;;;;;6.35;3.17;;;11.20;99.90;;;;;;5012019;28;20034;-78
2024/03/02 09:32:02;;;;;;;8.13;3.20;;;11.10;99.90;;;;;;5012519;28;20030;-78
2024/03/02 09:34:27;;;;;;;8.38;3.30;;;11.20;99.90;;;;;;5013231;28;20066;-78
2024/03/02 09:36:53;;;;;;;10.10;3.60;;;11.20;99.90;;;;;;5011977;28;20045;-78
2024/03/02 09:39:19;;;;;;;8.75;3.47;;;11.30;99.90;;;;;;5011684;28;20100;-78
2024/03/02 09:41:45;;;;;;;9.27;3.95;;;11.40;99.90;;;;;;5011370;28;20026;-78
2024/03/02 09:44:10;;;;;;;7.35;3.10;;;11.40;99.90;;;;;;5012569;28;20524;-77
2024/03/02 09:46:36;;;;;;;18.10;6.63;;;11.40;99.90;;;;;;5012331;28;20041;-75
2024/03/02 09:49:03;;;;;;;12.82;5.93;;;11.40;99.90;;;;;;5013560;28;20021;-75
2024/03/02 09:51:28;;;;;;;12.32;4.60;;;11.40;99.90;;;;;;5011729;28;20029;-77
2024/03/02 09:53:55;;;;;;;12.77;4.15;;;11.40;99.90;;;;;;5012796;28;20072;-77
2024/03/02 09:56:21;;;;;;;11.85;4.03;;;11.50;99.90;;;;;;5011464;28;20045;-77
2024/03/02 09:58:47;;;;;;;10.93;3.90;;;11.60;99.90;;;;;;5012806;28;20046;-77
2024/03/02 10:01:13;;;;;;;7.72;3.88;;;11.50;99.90;;;;;;5012205;28;20034;-77
2024/03/02 10:03:39;;;;;;;8.45;3.95;;;11.50;99.90;;;;;;5015067;28;20064;-77
2024/03/02 10:06:27;;;;;;;10.57;3.88;;;11.60;99.90;;;;;;5012355;28;20039;-78
2024/03/02 10:08:55;;;;;;;7.93;4.43;;;11.60;99.90;;;;;;5015013;28;20040;-78
2024/03/02 10:11:29;;;;;;;8.88;3.80;;;11.70;99.90;;;;;;5013648;28;20551;-77
2024/03/02 10:14:11;;;;;;;12.60;3.55;;;11.80;99.90;;;;;;5014579;28;20033;-77
2024/03/02 10:16:39;;;;;;;5.03;2.67;;;11.90;99.90;;;;;;5012627;28;20037;-75
2024/03/02 10:19:18;;;;;;;7.65;3.20;;;11.90;99.90;;;;;;5015418;28;20033;-75
2024/03/02 10:21:47;;;;;;;9.48;2.83;;;12.00;99.90;;;;;;5014097;28;20033;-79
2024/03/02 10:24:13;;;;;;;7.40;2.67;;;11.90;99.90;;;;;;5015051;28;20037;-76
2024/03/02 10:26:41;;;;;;;13.00;4.18;;;11.80;99.90;;;;;;5014162;28;20045;-76
2024/03/02 10:29:08;;;;;;;8.02;3.20;;;11.80;99.90;;;;;;5015480;28;20039;-78
2024/03/02 10:31:35;;;;;;;10.82;4.05;;;11.80;99.90;;;;;;5013780;28;20033;-79
2024/03/02 10:34:02;;;;;;;15.95;7.13;;;11.70;99.90;;;;;;5015087;28;20049;-79
2024/03/02 10:36:28;;;;;;;13.80;5.30;;;11.80;99.90;;;;;;5013920;28;20056;-78
2024/03/02 10:38:56;;;;;;;9.27;2.80;;;11.80;99.90;;;;;;5014928;28;20116;-79
2024/03/02 10:41:26;;;;;;;5.72;2.70;;;11.90;99.90;;;;;;5015089;28;20045;-78
2024/03/02 10:44:00;;;;;;;4.82;2.33;;;11.80;99.90;;;;;;5014965;28;20116;-78
2024/03/02 10:46:30;;;;;;;8.13;3.47;;;11.90;99.90;;;;;;4996848;28;20044;-78
2024/03/02 10:49:04;;;;;;;13.30;5.25;;;11.80;99.90;;;;;;5014048;28;20176;-76
2024/03/02 10:51:32;;;;;;;10.27;4.70;;;11.80;99.90;;;;;;5015196;28;20045;-77
2024/03/02 10:54:00;;;;;;;11.82;5.40;;;11.80;99.90;;;;;;5015791;28;20294;-77
2024/03/02 10:56:47;;;;;;;15.02;5.38;;;11.80;99.90;;;;;;5008758;28;20779;-78
2024/03/02 10:59:35;;;;;;;8.10;5.07;;;11.70;99.90;;;;;;5014321;28;20112;-77
2024/03/02 11:02:03;;;;;;;8.80;3.47;;;11.70;99.90;;;;;;5006383;28;20590;-77
2024/03/02 11:04:30;;;;;;;15.80;3.80;;;11.70;99.90;;;;;;5014150;28;20061;-76
2024/03/02 11:07:08;;;;;;;7.55;2.70;;;11.70;99.90;;;;;;5012555;28;20040;-76
2024/03/02 11:09:35;;;;;;;7.70;2.55;;;11.50;99.90;;;;;;5008816;28;20029;-77
2024/03/02 11:12:12;;;;;;;9.68;2.40;;;11.60;99.90;;;;;;5010939;28;20254;-76
2024/03/02 11:14:44;;;;;;;8.25;3.03;;;11.50;99.90;;;;;;5012437;28;20045;-77
2024/03/02 11:17:11;;;;;;;8.32;2.40;;;11.50;99.90;;;;;;5009297;28;20057;-77
2024/03/02 11:19:39;;;;;;;6.60;2.72;;;11.60;99.90;;;;;;5011126;28;20029;-77
2024/03/02 11:22:05;;;;;;;5.95;2.88;;;11.70;99.90;;;;;;5013851;28;20047;-77
2024/03/02 11:24:34;;;;;;;5.63;3.03;;;11.70;99.90;;;;;;5012139;28;20104;-77
2024/03/02 11:27:02;;;;;;;7.85;2.60;;;11.80;99.90;;;;;;5011513;28;20141;-76
2024/03/02 11:29:36;;;;;;;5.57;2.30;;;11.80;99.90;;;;;;5012812;28;20047;-77
2024/03/02 11:32:06;;;;;;;5.88;2.50;;;11.80;99.90;;;;;;5014611;28;20025;-77
2024/03/02 11:34:33;;;;;;;5.47;2.15;;;11.80;99.90;;;;;;5011488;28;20640;-77
2024/03/02 11:37:01;;;;;;;7.30;2.42;;;11.70;99.90;;;;;;5011901;28;20546;-77
2024/03/02 11:39:27;;;;;;;5.30;2.35;;;11.80;99.90;;;;;;5013977;28;20037;-77
2024/03/02 11:41:53;;;;;;;5.53;2.38;;;11.80;99.90;;;;;;5012270;28;20045;-76
2024/03/02 11:44:19;;;;;;;4.93;2.42;;;11.80;99.90;;;;;;5012177;28;20030;-77
2024/03/02 11:46:46;;;;;;;5.45;2.28;;;11.80;99.90;;;;;;5012616;28;20033;-77
2024/03/02 11:49:15;;;;;;;6.43;2.80;;;11.90;99.90;;;;;;5013225;28;20047;-77
2024/03/02 11:52:00;;;;;;;7.20;2.67;;;11.90;99.90;;;;;;5012389;28;20451;-77
2024/03/02 11:54:30;;;;;;;5.38;2.58;;;12.00;99.90;;;;;;5012326;28;20033;-75
2024/03/02 11:56:57;;;;;;;6.43;2.97;;;11.90;99.90;;;;;;5011636;28;20056;-75
2024/03/02 11:59:24;;;;;;;6.40;2.60;;;11.90;99.90;;;;;;5013432;28;20037;-74
2024/03/02 12:01:50;;;;;;;11.27;3.00;;;11.90;99.90;;;;;;5011711;28;20034;-74
2024/03/02 12:04:16;;;;;;;10.13;2.53;;;11.80;99.90;;;;;;5012837;28;20037;-75
2024/03/02 12:06:42;;;;;;;4.07;1.92;;;11.90;99.90;;;;;;5010024;28;20457;-74
2024/03/02 12:09:14;;;;;;;6.45;2.38;;;11.90;99.90;;;;;;5011926;28;20029;-74
2024/03/02 12:11:40;;;;;;;4.97;2.03;;;11.90;99.90;;;;;;5011401;28;20657;-74
2024/03/02 12:14:12;;;;;;;5.18;2.00;;;11.90;99.90;;;;;;5009577;28;20036;-74
2024/03/02 12:16:39;;;;;;;5.78;2.30;;;11.80;99.90;;;;;;5008144;28;20111;-74
2024/03/02 12:19:06;;;;;;;4.97;2.00;;;11.80;99.90;;;;;;5010843;28;20060;-74
2024/03/02 12:21:31;;;;;;;9.32;1.80;;;11.90;99.90;;;;;;5012270;28;20533;-75
2024/03/02 12:23:57;;;;;;;4.90;2.10;;;11.90;99.90;;;;;;5009859;28;20041;-75
2024/03/02 12:26:23;;;;;;;12.13;2.90;;;12.00;99.90;;;;;;5009816;28;20975;-74
2024/03/02 12:28:49;;;;;;;5.43;3.05;;;11.90;99.90;;;;;;5012331;28;20033;-74
2024/03/02 12:31:15;;;;;;;9.18;3.17;;;12.00;99.90;;;;;;5011396;28;20432;-74
2024/03/02 12:33:41;;;;;;;4.88;2.10;;;11.90;99.90;;;;;;5012048;28;20036;-76
2024/03/02 12:36:13;;;;;;;6.97;2.60;;;11.90;99.90;;;;;;5012515;28;20515;-75
2024/03/02 12:38:44;;;;;;;7.75;3.10;;;11.90;99.90;;;;;;5011646;28;21825;-75
2024/03/02 12:41:09;;;;;;;10.32;3.17;;;12.00;99.90;;;;;;5010755;28;20033;-75
2024/03/02 12:43:35;;;;;;;6.88;2.40;;;12.00;99.90;;;;;;5011406;28;20470;-75
2024/03/02 12:46:01;;;;;;;6.88;2.25;;;12.00;99.90;;;;;;5011167;28;20044;-75
2024/03/02 12:48:27;;;;;;;6.38;1.98;;;12.20;99.90;;;;;;5011218;28;20037;-75
2024/03/02 12:50:53;;;;;;;4.28;1.67;;;12.00;99.90;;;;;;5011878;28;20040;-75
2024/03/02 12:53:18;;;;;;;9.52;1.60;;;11.90;99.90;;;;;;5010931;28;20029;-75
2024/03/02 12:55:44;;;;;;;4.22;1.10;;;11.90;99.90;;;;;;5011045;28;20048;-75
2024/03/02 12:58:18;;;;;;;3.53;0.95;;;12.00;99.90;;;;;;5011035;28;20045;-75